GCLAGCHI

Guest
Details From GCLA - La Palma
To GCHI - Hierro
Flight Number -
Tags Generated
Created
Modified
Stats Distance 48 nm / 90 km
Max Altitude 0 ft / 0 m
Waypoints 2
Social Downloads 3
Likes 0
Share VATSIM

Download

Looking for another format? Having issues loading an existing format? Contact us
Advertisement - Login to hide

Notes

Generated

Route

GCLA GCHI

ID Type Via Altitude Latitude Longitude Leg Dist Tot Dist Heading (true) Name
O GCLA APT - 0 ft / 0 m 28.61659˚ -17.75542˚ - 0 nm - -
O GCHI APT - 0 ft / 0 m 27.81985˚ -17.88997˚ 48 nm 48 nm 188° / 188° -

Altitude Profile

Advertisement - Login to hide

GCLA

Details ICAO GCLA (SPC)
Name La Palma
Region Canary Islands
Timezone Atlantic/Canary (UTC+0.0)
Stats Elevation 107 ft / 33 m (AMSL)
Location 28.626480° -17.755613°
Runways 1
Magnetic Variation 5.522° W

METAR

GCLA 141900Z 31010KT 280V340 9999 SCT043 18/10 Q1027

Decode

TAF

TAF AMD GCLA 141901Z 1419/1515 02009KT 9999 FEW045 TX22/1514Z TN16/1506Z TEMPO 1419/1423 31010KT

Decode

Departure Runways

ID Width Length Bearing (true) Bearing (mag) Surface Threshold Offset Overrun Length
01 148 ft / 45 m 7,240 ft / 2,207 m 359.02° 4.54° Asphalt 0 ft / 0 m 279 ft / 85 m
19 148 ft / 45 m 7,240 ft / 2,207 m 179.02° 184.54° Asphalt 0 ft / 0 m 236 ft / 72 m

GCHI

Details ICAO GCHI (VDE)
Name Hierro
Region Canary Islands
Timezone Atlantic/Canary (UTC+0.0)
Stats Elevation 337 ft / 103 m (AMSL)
Location 27.814848° -17.887052°
Runways 1
Magnetic Variation 5.629° W

METAR

GCHI 141900Z AUTO 01013KT 340V040 9999 FEW030/// 19/12 Q1026

Decode

TAF

TAF GCHI 141400Z 1415/1515 03018KT 9999 FEW030 TX22/1514Z TN15/1506Z

Decode

Destination Runways

ID Width Length Bearing (true) Bearing (mag) Surface Threshold Offset Overrun Length
16 98 ft / 30 m 4,110 ft / 1,253 m 152.71° 158.34° Asphalt 0 ft / 0 m 112 ft / 34 m
34 98 ft / 30 m 4,110 ft / 1,253 m 332.71° 338.34° Asphalt 0 ft / 0 m 105 ft / 32 m

Popular Alternatives